sensor_id;sensor_type;location;lat;lon;timestamp;temperature;humidity
7646;DHT22;3864;48.180;14.178;2023-07-31T00:00:45;15.20;99.90
7646;DHT22;3864;48.180;14.178;2023-07-31T00:03:12;15.20;99.90
7646;DHT22;3864;48.180;14.178;2023-07-31T00:05:39;15.20;99.90
7646;DHT22;3864;48.180;14.178;2023-07-31T00:08:07;15.40;99.90
7646;DHT22;3864;48.180;14.178;2023-07-31T00:10:34;15.40;99.90
7646;DHT22;3864;48.180;14.178;2023-07-31T00:13:03;15.40;99.90
7646;DHT22;3864;48.180;14.178;2023-07-31T00:15:30;15.40;99.90
7646;DHT22;3864;48.180;14.178;2023-07-31T00:17:58;15.40;99.90
7646;DHT22;3864;48.180;14.178;2023-07-31T00:20:26;15.40;99.90
7646;DHT22;3864;48.180;14.178;2023-07-31T00:22:53;15.50;99.90
7646;DHT22;3864;48.180;14.178;2023-07-31T00:25:20;15.50;99.90
7646;DHT22;3864;48.180;14.178;2023-07-31T00:27:47;15.50;99.90
7646;DHT22;3864;48.180;14.178;2023-07-31T00:30:17;15.50;99.90
7646;DHT22;3864;48.180;14.178;2023-07-31T00:32:44;15.50;99.90
7646;DHT22;3864;48.180;14.178;2023-07-31T00:35:11;15.50;99.90
7646;DHT22;3864;48.180;14.178;2023-07-31T00:37:38;15.40;99.90
7646;DHT22;3864;48.180;14.178;2023-07-31T00:40:06;15.30;99.90
7646;DHT22;3864;48.180;14.178;2023-07-31T00:42:34;15.20;99.90
7646;DHT22;3864;48.180;14.178;2023-07-31T00:45:01;15.30;99.90
7646;DHT22;3864;48.180;14.178;2023-07-31T00:47:30;15.30;99.90
7646;DHT22;3864;48.180;14.178;2023-07-31T00:49:58;15.30;99.90
7646;DHT22;3864;48.180;14.178;2023-07-31T00:52:25;15.30;99.90
7646;DHT22;3864;48.180;14.178;2023-07-31T00:54:53;15.40;99.90
7646;DHT22;3864;48.180;14.178;2023-07-31T00:57:20;15.30;99.90
7646;DHT22;3864;48.180;14.178;2023-07-31T00:59:47;15.30;99.90
7646;DHT22;3864;48.180;14.178;2023-07-31T01:02:15;15.30;99.90
7646;DHT22;3864;48.180;14.178;2023-07-31T01:04:44;15.30;99.90
7646;DHT22;3864;48.180;14.178;2023-07-31T01:07:18;15.30;99.90
7646;DHT22;3864;48.180;14.178;2023-07-31T01:09:52;15.20;99.90
7646;DHT22;3864;48.180;14.178;2023-07-31T01:12:22;15.20;99.90
7646;DHT22;3864;48.180;14.178;2023-07-31T01:15:02;15.10;99.90
7646;DHT22;3864;48.180;14.178;2023-07-31T01:17:30;15.10;99.90
7646;DHT22;3864;48.180;14.178;2023-07-31T01:20:01;15.00;99.90
7646;DHT22;3864;48.180;14.178;2023-07-31T01:22:39;15.00;99.90
7646;DHT22;3864;48.180;14.178;2023-07-31T01:25:20;14.90;99.90
7646;DHT22;3864;48.180;14.178;2023-07-31T01:27:58;14.80;99.90
7646;DHT22;3864;48.180;14.178;2023-07-31T01:30:28;14.80;99.90
7646;DHT22;3864;48.180;14.178;2023-07-31T01:33:01;14.70;99.90
7646;DHT22;3864;48.180;14.178;2023-07-31T01:35:33;14.70;99.90
7646;DHT22;3864;48.180;14.178;2023-07-31T01:38:00;14.70;99.90
7646;DHT22;3864;48.180;14.178;2023-07-31T01:40:27;14.70;99.90
7646;DHT22;3864;48.180;14.178;2023-07-31T01:42:56;14.70;99.90
7646;DHT22;3864;48.180;14.178;2023-07-31T01:45:23;14.70;99.90
7646;DHT22;3864;48.180;14.178;2023-07-31T01:47:50;14.70;99.90
7646;DHT22;3864;48.180;14.178;2023-07-31T01:50:18;14.70;99.90
7646;DHT22;3864;48.180;14.178;2023-07-31T01:52:45;14.70;99.90
7646;DHT22;3864;48.180;14.178;2023-07-31T01:55:13;14.60;99.90
7646;DHT22;3864;48.180;14.178;2023-07-31T01:57:40;14.60;99.90
7646;DHT22;3864;48.180;14.178;2023-07-31T02:00:10;14.50;99.90
7646;DHT22;3864;48.180;14.178;2023-07-31T02:02:37;14.50;99.90
7646;DHT22;3864;48.180;14.178;2023-07-31T02:05:05;14.40;99.90
7646;DHT22;3864;48.180;14.178;2023-07-31T02:07:33;14.40;99.90
7646;DHT22;3864;48.180;14.178;2023-07-31T02:10:00;14.40;99.90
7646;DHT22;3864;48.180;14.178;2023-07-31T02:12:27;14.40;99.90
7646;DHT22;3864;48.180;14.178;2023-07-31T02:14:56;14.30;99.90
7646;DHT22;3864;48.180;14.178;2023-07-31T02:17:25;14.40;99.90
7646;DHT22;3864;48.180;14.178;2023-07-31T02:19:52;14.40;99.90
7646;DHT22;3864;48.180;14.178;2023-07-31T02:22:20;14.40;99.90
7646;DHT22;3864;48.180;14.178;2023-07-31T02:24:47;14.50;99.90
7646;DHT22;3864;48.180;14.178;2023-07-31T02:27:15;14.50;99.90
7646;DHT22;3864;48.180;14.178;2023-07-31T02:29:42;14.50;99.90
7646;DHT22;3864;48.180;14.178;2023-07-31T02:32:09;14.50;99.90
7646;DHT22;3864;48.180;14.178;2023-07-31T02:34:38;14.40;99.90
7646;DHT22;3864;48.180;14.178;2023-07-31T02:37:05;14.30;99.90
7646;DHT22;3864;48.180;14.178;2023-07-31T02:39:33;14.20;99.90
7646;DHT22;3864;48.180;14.178;2023-07-31T02:42:00;14.10;99.90
7646;DHT22;3864;48.180;14.178;2023-07-31T02:44:27;14.00;99.90
7646;DHT22;3864;48.180;14.178;2023-07-31T02:46:55;14.00;99.90
7646;DHT22;3864;48.180;14.178;2023-07-31T02:49:22;13.90;99.90
7646;DHT22;3864;48.180;14.178;2023-07-31T02:51:51;13.80;99.90
7646;DHT22;3864;48.180;14.178;2023-07-31T02:54:18;13.80;99.90
7646;DHT22;3864;48.180;14.178;2023-07-31T02:56:47;13.70;99.90
7646;DHT22;3864;48.180;14.178;2023-07-31T02:59:14;13.70;99.90
7646;DHT22;3864;48.180;14.178;2023-07-31T03:01:42;13.70;99.90
7646;DHT22;3864;48.180;14.178;2023-07-31T03:04:09;13.80;99.90
7646;DHT22;3864;48.180;14.178;2023-07-31T03:06:36;13.80;99.90
7646;DHT22;3864;48.180;14.178;2023-07-31T03:09:05;13.90;99.90
7646;DHT22;3864;48.180;14.178;2023-07-31T03:11:32;13.90;99.90
7646;DHT22;3864;48.180;14.178;2023-07-31T03:13:59;13.90;99.90
7646;DHT22;3864;48.180;14.178;2023-07-31T03:16:27;13.80;99.90
7646;DHT22;3864;48.180;14.178;2023-07-31T03:18:54;13.80;99.90
7646;DHT22;3864;48.180;14.178;2023-07-31T03:21:23;13.70;99.90
7646;DHT22;3864;48.180;14.178;2023-07-31T03:23:50;13.70;99.90
7646;DHT22;3864;48.180;14.178;2023-07-31T03:26:19;13.60;99.90
7646;DHT22;3864;48.180;14.178;2023-07-31T03:28:46;13.60;99.90
7646;DHT22;3864;48.180;14.178;2023-07-31T03:31:15;13.50;99.90
7646;DHT22;3864;48.180;14.178;2023-07-31T03:33:42;13.50;99.90
7646;DHT22;3864;48.180;14.178;2023-07-31T03:36:09;13.50;99.90
7646;DHT22;3864;48.180;14.178;2023-07-31T03:38:36;13.50;99.90
7646;DHT22;3864;48.180;14.178;2023-07-31T03:41:03;13.60;99.90
7646;DHT22;3864;48.180;14.178;2023-07-31T03:43:33;13.60;99.90
7646;DHT22;3864;48.180;14.178;2023-07-31T03:46:00;13.60;99.90
7646;DHT22;3864;48.180;14.178;2023-07-31T03:48:28;13.50;99.90
7646;DHT22;3864;48.180;14.178;2023-07-31T03:50:55;13.40;99.90
7646;DHT22;3864;48.180;14.178;2023-07-31T03:53:22;13.40;99.90
7646;DHT22;3864;48.180;14.178;2023-07-31T03:55:49;13.30;99.90
7646;DHT22;3864;48.180;14.178;2023-07-31T03:58:17;13.20;99.90
7646;DHT22;3864;48.180;14.178;2023-07-31T04:00:45;13.20;99.90
7646;DHT22;3864;48.180;14.178;2023-07-31T04:03:12;13.20;99.90
7646;DHT22;3864;48.180;14.178;2023-07-31T04:05:39;13.20;99.90
7646;DHT22;3864;48.180;14.178;2023-07-31T04:08:06;13.30;99.90
7646;DHT22;3864;48.180;14.178;2023-07-31T04:10:33;13.40;99.90
7646;DHT22;3864;48.180;14.178;2023-07-31T04:13:00;13.40;99.90
7646;DHT22;3864;48.180;14.178;2023-07-31T04:15:27;13.40;99.90
7646;DHT22;3864;48.180;14.178;2023-07-31T04:17:56;13.40;99.90
7646;DHT22;3864;48.180;14.178;2023-07-31T04:20:23;13.40;99.90
7646;DHT22;3864;48.180;14.178;2023-07-31T04:22:50;13.40;99.90
7646;DHT22;3864;48.180;14.178;2023-07-31T04:25:17;13.40;99.90
7646;DHT22;3864;48.180;14.178;2023-07-31T04:27:44;13.40;99.90
7646;DHT22;3864;48.180;14.178;2023-07-31T04:30:11;13.40;99.90
7646;DHT22;3864;48.180;14.178;2023-07-31T04:32:38;13.50;99.90
7646;DHT22;3864;48.180;14.178;2023-07-31T04:35:07;13.50;99.90
7646;DHT22;3864;48.180;14.178;2023-07-31T04:37:34;13.40;99.90
7646;DHT22;3864;48.180;14.178;2023-07-31T04:40:01;13.40;99.90
7646;DHT22;3864;48.180;14.178;2023-07-31T04:42:29;13.40;99.90
7646;DHT22;3864;48.180;14.178;2023-07-31T04:44:56;13.40;99.90
7646;DHT22;3864;48.180;14.178;2023-07-31T04:47:23;13.40;99.90
7646;DHT22;3864;48.180;14.178;2023-07-31T04:49:50;13.40;99.90
7646;DHT22;3864;48.180;14.178;2023-07-31T04:52:18;13.40;99.90
7646;DHT22;3864;48.180;14.178;2023-07-31T04:54:45;13.40;99.90
7646;DHT22;3864;48.180;14.178;2023-07-31T04:57:12;13.40;99.90
7646;DHT22;3864;48.180;14.178;2023-07-31T04:59:39;13.50;99.90
7646;DHT22;3864;48.180;14.178;2023-07-31T05:02:07;13.60;99.90
7646;DHT22;3864;48.180;14.178;2023-07-31T05:04:35;13.70;99.90
7646;DHT22;3864;48.180;14.178;2023-07-31T05:07:02;13.70;99.90
7646;DHT22;3864;48.180;14.178;2023-07-31T05:09:30;13.80;99.90
7646;DHT22;3864;48.180;14.178;2023-07-31T05:11:57;13.90;99.90
7646;DHT22;3864;48.180;14.178;2023-07-31T05:14:26;13.90;99.90
7646;DHT22;3864;48.180;14.178;2023-07-31T05:16:53;14.00;99.90
7646;DHT22;3864;48.180;14.178;2023-07-31T05:19:20;14.10;99.90
7646;DHT22;3864;48.180;14.178;2023-07-31T05:21:47;14.20;99.90
7646;DHT22;3864;48.180;14.178;2023-07-31T05:24:14;14.30;99.90
7646;DHT22;3864;48.180;14.178;2023-07-31T05:26:42;14.30;99.90
7646;DHT22;3864;48.180;14.178;2023-07-31T05:29:09;14.30;99.90
7646;DHT22;3864;48.180;14.178;2023-07-31T05:31:36;14.30;99.90
7646;DHT22;3864;48.180;14.178;2023-07-31T05:34:04;14.40;99.90
7646;DHT22;3864;48.180;14.178;2023-07-31T05:36:31;14.50;99.90
7646;DHT22;3864;48.180;14.178;2023-07-31T05:38:58;14.50;99.90
7646;DHT22;3864;48.180;14.178;2023-07-31T05:41:25;14.60;99.90
7646;DHT22;3864;48.180;14.178;2023-07-31T05:43:53;14.70;99.90
7646;DHT22;3864;48.180;14.178;2023-07-31T05:46:20;14.80;99.90
7646;DHT22;3864;48.180;14.178;2023-07-31T05:48:47;15.50;99.90
7646;DHT22;3864;48.180;14.178;2023-07-31T05:51:14;16.90;99.90
7646;DHT22;3864;48.180;14.178;2023-07-31T05:53:41;17.60;99.90
7646;DHT22;3864;48.180;14.178;2023-07-31T05:56:09;18.70;99.90
7646;DHT22;3864;48.180;14.178;2023-07-31T05:58:36;20.90;99.90
7646;DHT22;3864;48.180;14.178;2023-07-31T06:01:04;23.00;99.90
7646;DHT22;3864;48.180;14.178;2023-07-31T06:03:32;23.60;99.90
7646;DHT22;3864;48.180;14.178;2023-07-31T06:05:59;24.10;99.90
7646;DHT22;3864;48.180;14.178;2023-07-31T06:08:26;24.70;99.90
7646;DHT22;3864;48.180;14.178;2023-07-31T06:10:53;25.00;99.90
7646;DHT22;3864;48.180;14.178;2023-07-31T06:13:20;25.90;99.90
7646;DHT22;3864;48.180;14.178;2023-07-31T06:15:47;26.80;99.90
7646;DHT22;3864;48.180;14.178;2023-07-31T06:18:16;27.10;99.90
7646;DHT22;3864;48.180;14.178;2023-07-31T06:20:43;28.00;99.90
7646;DHT22;3864;48.180;14.178;2023-07-31T06:23:10;28.40;99.90
7646;DHT22;3864;48.180;14.178;2023-07-31T06:25:37;28.20;99.90
7646;DHT22;3864;48.180;14.178;2023-07-31T06:28:04;27.10;99.90
7646;DHT22;3864;48.180;14.178;2023-07-31T06:30:31;28.30;99.90
7646;DHT22;3864;48.180;14.178;2023-07-31T06:32:58;28.40;99.90
7646;DHT22;3864;48.180;14.178;2023-07-31T06:35:27;27.60;99.90
7646;DHT22;3864;48.180;14.178;2023-07-31T06:37:54;28.40;99.90
7646;DHT22;3864;48.180;14.178;2023-07-31T06:40:22;29.90;99.90
7646;DHT22;3864;48.180;14.178;2023-07-31T06:42:49;30.40;99.90
7646;DHT22;3864;48.180;14.178;2023-07-31T06:45:16;29.60;99.90
7646;DHT22;3864;48.180;14.178;2023-07-31T06:47:43;29.60;99.90
7646;DHT22;3864;48.180;14.178;2023-07-31T06:50:10;29.20;99.90
7646;DHT22;3864;48.180;14.178;2023-07-31T06:52:39;29.50;99.90
7646;DHT22;3864;48.180;14.178;2023-07-31T06:55:17;30.20;99.90
7646;DHT22;3864;48.180;14.178;2023-07-31T06:57:45;30.10;99.90
7646;DHT22;3864;48.180;14.178;2023-07-31T07:00:13;30.80;99.90
7646;DHT22;3864;48.180;14.178;2023-07-31T07:02:40;30.90;99.90
7646;DHT22;3864;48.180;14.178;2023-07-31T07:05:07;30.70;99.90
7646;DHT22;3864;48.180;14.178;2023-07-31T07:07:35;31.40;99.90
7646;DHT22;3864;48.180;14.178;2023-07-31T07:10:05;32.00;99.90
7646;DHT22;3864;48.180;14.178;2023-07-31T07:12:33;32.10;99.90
7646;DHT22;3864;48.180;14.178;2023-07-31T07:15:00;31.90;99.90
7646;DHT22;3864;48.180;14.178;2023-07-31T07:17:29;32.10;99.90
7646;DHT22;3864;48.180;14.178;2023-07-31T07:19:57;31.90;99.90
7646;DHT22;3864;48.180;14.178;2023-07-31T07:22:24;31.30;99.90
7646;DHT22;3864;48.180;14.178;2023-07-31T07:24:51;28.80;99.90
7646;DHT22;3864;48.180;14.178;2023-07-31T07:27:20;28.90;99.90
7646;DHT22;3864;48.180;14.178;2023-07-31T07:29:47;29.30;99.90
7646;DHT22;3864;48.180;14.178;2023-07-31T07:32:14;29.50;99.90
7646;DHT22;3864;48.180;14.178;2023-07-31T07:34:41;27.50;99.90
7646;DHT22;3864;48.180;14.178;2023-07-31T07:37:08;29.30;99.90
7646;DHT22;3864;48.180;14.178;2023-07-31T07:39:35;29.80;99.90
7646;DHT22;3864;48.180;14.178;2023-07-31T07:42:02;30.00;99.90
7646;DHT22;3864;48.180;14.178;2023-07-31T07:44:31;29.70;99.90
7646;DHT22;3864;48.180;14.178;2023-07-31T07:46:58;29.50;99.90
7646;DHT22;3864;48.180;14.178;2023-07-31T07:49:25;27.30;99.90
7646;DHT22;3864;48.180;14.178;2023-07-31T07:51:52;25.40;99.90
7646;DHT22;3864;48.180;14.178;2023-07-31T07:54:19;25.00;99.90
7646;DHT22;3864;48.180;14.178;2023-07-31T07:56:46;25.10;99.90
7646;DHT22;3864;48.180;14.178;2023-07-31T07:59:15;25.40;99.90
7646;DHT22;3864;48.180;14.178;2023-07-31T08:01:43;25.30;99.90
7646;DHT22;3864;48.180;14.178;2023-07-31T08:04:10;25.00;99.90
7646;DHT22;3864;48.180;14.178;2023-07-31T08:06:37;24.80;99.90
7646;DHT22;3864;48.180;14.178;2023-07-31T08:09:05;24.90;99.90
7646;DHT22;3864;48.180;14.178;2023-07-31T08:11:34;24.60;99.90
7646;DHT22;3864;48.180;14.178;2023-07-31T08:14:01;24.80;99.90
7646;DHT22;3864;48.180;14.178;2023-07-31T08:16:28;25.00;99.90
7646;DHT22;3864;48.180;14.178;2023-07-31T08:18:56;25.50;99.90
7646;DHT22;3864;48.180;14.178;2023-07-31T08:21:23;25.50;99.90
7646;DHT22;3864;48.180;14.178;2023-07-31T08:23:50;25.60;99.90
7646;DHT22;3864;48.180;14.178;2023-07-31T08:26:18;25.20;99.90
7646;DHT22;3864;48.180;14.178;2023-07-31T08:28:46;25.60;99.90
7646;DHT22;3864;48.180;14.178;2023-07-31T08:31:13;25.60;99.90
7646;DHT22;3864;48.180;14.178;2023-07-31T08:33:40;25.60;99.90
7646;DHT22;3864;48.180;14.178;2023-07-31T08:36:09;25.70;99.90
7646;DHT22;3864;48.180;14.178;2023-07-31T08:38:36;25.50;99.90
7646;DHT22;3864;48.180;14.178;2023-07-31T08:41:03;25.20;99.90
7646;DHT22;3864;48.180;14.178;2023-07-31T08:43:31;25.60;99.90
7646;DHT22;3864;48.180;14.178;2023-07-31T08:45:59;25.80;99.90
7646;DHT22;3864;48.180;14.178;2023-07-31T08:48:28;25.80;99.90
7646;DHT22;3864;48.180;14.178;2023-07-31T08:50:56;24.90;99.90
7646;DHT22;3864;48.180;14.178;2023-07-31T08:53:24;25.50;99.90
7646;DHT22;3864;48.180;14.178;2023-07-31T08:55:53;25.60;99.90
7646;DHT22;3864;48.180;14.178;2023-07-31T08:58:21;25.70;99.90
7646;DHT22;3864;48.180;14.178;2023-07-31T09:00:48;25.60;99.90
7646;DHT22;3864;48.180;14.178;2023-07-31T09:03:18;25.50;99.90
7646;DHT22;3864;48.180;14.178;2023-07-31T09:05:46;25.30;99.90
7646;DHT22;3864;48.180;14.178;2023-07-31T09:08:17;25.60;99.90
7646;DHT22;3864;48.180;14.178;2023-07-31T09:10:46;25.90;99.90
7646;DHT22;3864;48.180;14.178;2023-07-31T09:13:15;26.00;99.90
7646;DHT22;3864;48.180;14.178;2023-07-31T09:15:44;25.70;99.90
7646;DHT22;3864;48.180;14.178;2023-07-31T09:18:12;25.60;99.90
7646;DHT22;3864;48.180;14.178;2023-07-31T09:20:39;25.70;99.90
7646;DHT22;3864;48.180;14.178;2023-07-31T09:23:08;25.20;99.90
7646;DHT22;3864;48.180;14.178;2023-07-31T09:25:36;25.20;99.90
7646;DHT22;3864;48.180;14.178;2023-07-31T09:28:06;24.80;99.90
7646;DHT22;3864;48.180;14.178;2023-07-31T09:30:45;24.70;99.90
7646;DHT22;3864;48.180;14.178;2023-07-31T09:33:13;24.70;99.90
7646;DHT22;3864;48.180;14.178;2023-07-31T09:35:41;25.40;99.90
7646;DHT22;3864;48.180;14.178;2023-07-31T09:38:09;26.20;99.90
7646;DHT22;3864;48.180;14.178;2023-07-31T09:40:38;26.60;99.90
7646;DHT22;3864;48.180;14.178;2023-07-31T09:43:08;27.00;99.90
7646;DHT22;3864;48.180;14.178;2023-07-31T09:45:38;27.60;99.90
7646;DHT22;3864;48.180;14.178;2023-07-31T09:48:07;27.70;99.90
7646;DHT22;3864;48.180;14.178;2023-07-31T09:50:36;28.20;99.90
7646;DHT22;3864;48.180;14.178;2023-07-31T09:53:04;28.50;99.90
7646;DHT22;3864;48.180;14.178;2023-07-31T09:55:31;27.70;99.90
7646;DHT22;3864;48.180;14.178;2023-07-31T09:57:58;27.30;99.90
7646;DHT22;3864;48.180;14.178;2023-07-31T10:00:28;27.20;99.90
7646;DHT22;3864;48.180;14.178;2023-07-31T10:02:58;28.20;99.90
7646;DHT22;3864;48.180;14.178;2023-07-31T10:05:31;28.90;99.90
7646;DHT22;3864;48.180;14.178;2023-07-31T10:08:00;28.70;99.90
7646;DHT22;3864;48.180;14.178;2023-07-31T10:10:28;28.70;99.90
7646;DHT22;3864;48.180;14.178;2023-07-31T10:12:57;28.70;99.90
7646;DHT22;3864;48.180;14.178;2023-07-31T10:15:27;29.60;99.90
7646;DHT22;3864;48.180;14.178;2023-07-31T10:17:55;29.70;99.90
7646;DHT22;3864;48.180;14.178;2023-07-31T10:20:23;29.50;99.90
7646;DHT22;3864;48.180;14.178;2023-07-31T10:22:51;29.70;99.90
7646;DHT22;3864;48.180;14.178;2023-07-31T10:25:18;30.00;99.90
7646;DHT22;3864;48.180;14.178;2023-07-31T10:27:47;30.20;99.80
7646;DHT22;3864;48.180;14.178;2023-07-31T10:30:17;28.70;99.40
7646;DHT22;3864;48.180;14.178;2023-07-31T10:32:47;29.10;99.90
7646;DHT22;3864;48.180;14.178;2023-07-31T10:35:16;28.70;99.90
7646;DHT22;3864;48.180;14.178;2023-07-31T10:37:44;29.20;99.90
7646;DHT22;3864;48.180;14.178;2023-07-31T10:40:13;29.60;99.90
7646;DHT22;3864;48.180;14.178;2023-07-31T10:42:47;30.40;99.90
7646;DHT22;3864;48.180;14.178;2023-07-31T10:45:24;30.30;98.90
7646;DHT22;3864;48.180;14.178;2023-07-31T10:47:59;30.60;98.40
7646;DHT22;3864;48.180;14.178;2023-07-31T10:50:28;29.80;99.90
7646;DHT22;3864;48.180;14.178;2023-07-31T10:52:56;30.60;99.90
7646;DHT22;3864;48.180;14.178;2023-07-31T10:55:29;29.60;97.90
7646;DHT22;3864;48.180;14.178;2023-07-31T10:57:58;29.90;99.90
7646;DHT22;3864;48.180;14.178;2023-07-31T11:00:31;29.70;99.90
7646;DHT22;3864;48.180;14.178;2023-07-31T11:03:14;30.10;99.90
7646;DHT22;3864;48.180;14.178;2023-07-31T11:05:52;29.50;99.90
7646;DHT22;3864;48.180;14.178;2023-07-31T11:08:22;29.60;99.90
7646;DHT22;3864;48.180;14.178;2023-07-31T11:10:51;29.50;99.90
7646;DHT22;3864;48.180;14.178;2023-07-31T11:13:20;29.50;99.90
7646;DHT22;3864;48.180;14.178;2023-07-31T11:15:47;29.30;99.90
7646;DHT22;3864;48.180;14.178;2023-07-31T11:18:15;28.90;99.90
7646;DHT22;3864;48.180;14.178;2023-07-31T11:20:43;28.30;99.90
7646;DHT22;3864;48.180;14.178;2023-07-31T11:23:11;28.10;99.90
7646;DHT22;3864;48.180;14.178;2023-07-31T11:25:39;27.40;99.90
7646;DHT22;3864;48.180;14.178;2023-07-31T11:28:08;27.20;99.50
7646;DHT22;3864;48.180;14.178;2023-07-31T11:30:36;27.60;99.90
7646;DHT22;3864;48.180;14.178;2023-07-31T11:33:04;27.90;99.90
7646;DHT22;3864;48.180;14.178;2023-07-31T11:35:34;27.90;99.90
7646;DHT22;3864;48.180;14.178;2023-07-31T11:38:02;27.50;99.90
7646;DHT22;3864;48.180;14.178;2023-07-31T11:40:29;27.10;99.60
7646;DHT22;3864;48.180;14.178;2023-07-31T11:42:57;26.80;99.90
7646;DHT22;3864;48.180;14.178;2023-07-31T11:45:27;27.30;99.90
7646;DHT22;3864;48.180;14.178;2023-07-31T11:47:55;27.10;99.90
7646;DHT22;3864;48.180;14.178;2023-07-31T11:50:23;27.60;99.90
7646;DHT22;3864;48.180;14.178;2023-07-31T11:52:56;28.40;99.90
7646;DHT22;3864;48.180;14.178;2023-07-31T11:55:24;28.60;99.90
7646;DHT22;3864;48.180;14.178;2023-07-31T11:57:52;28.30;99.90
7646;DHT22;3864;48.180;14.178;2023-07-31T12:00:21;28.20;99.90
7646;DHT22;3864;48.180;14.178;2023-07-31T12:02:50;28.50;99.90
7646;DHT22;3864;48.180;14.178;2023-07-31T12:05:17;28.00;99.40
7646;DHT22;3864;48.180;14.178;2023-07-31T12:07:46;28.00;99.00
7646;DHT22;3864;48.180;14.178;2023-07-31T12:10:24;27.00;99.60
7646;DHT22;3864;48.180;14.178;2023-07-31T12:13:00;27.10;99.90
7646;DHT22;3864;48.180;14.178;2023-07-31T12:15:48;28.00;99.90
7646;DHT22;3864;48.180;14.178;2023-07-31T12:18:18;28.50;99.90
7646;DHT22;3864;48.180;14.178;2023-07-31T12:20:48;29.10;99.90
7646;DHT22;3864;48.180;14.178;2023-07-31T12:23:17;29.00;99.90
7646;DHT22;3864;48.180;14.178;2023-07-31T12:25:46;29.10;99.90
7646;DHT22;3864;48.180;14.178;2023-07-31T12:28:13;29.00;99.90
7646;DHT22;3864;48.180;14.178;2023-07-31T12:30:41;29.60;99.90
7646;DHT22;3864;48.180;14.178;2023-07-31T12:33:13;29.60;98.80
7646;DHT22;3864;48.180;14.178;2023-07-31T12:35:43;30.10;97.80
7646;DHT22;3864;48.180;14.178;2023-07-31T12:38:11;29.40;99.70
7646;DHT22;3864;48.180;14.178;2023-07-31T12:40:39;29.40;99.90
7646;DHT22;3864;48.180;14.178;2023-07-31T12:43:08;29.90;99.90
7646;DHT22;3864;48.180;14.178;2023-07-31T12:45:35;30.00;99.90
7646;DHT22;3864;48.180;14.178;2023-07-31T12:48:03;30.00;99.90
7646;DHT22;3864;48.180;14.178;2023-07-31T12:50:30;30.00;99.90
7646;DHT22;3864;48.180;14.178;2023-07-31T12:52:57;29.60;99.90
7646;DHT22;3864;48.180;14.178;2023-07-31T12:55:25;29.20;98.90
7646;DHT22;3864;48.180;14.178;2023-07-31T12:57:52;28.70;98.60
7646;DHT22;3864;48.180;14.178;2023-07-31T13:00:20;29.30;99.90
7646;DHT22;3864;48.180;14.178;2023-07-31T13:02:48;29.80;99.90
7646;DHT22;3864;48.180;14.178;2023-07-31T13:05:15;29.80;99.90
7646;DHT22;3864;48.180;14.178;2023-07-31T13:07:42;29.70;99.90
7646;DHT22;3864;48.180;14.178;2023-07-31T13:10:09;29.50;99.50
7646;DHT22;3864;48.180;14.178;2023-07-31T13:12:36;29.00;98.80
7646;DHT22;3864;48.180;14.178;2023-07-31T13:15:04;28.20;98.50
7646;DHT22;3864;48.180;14.178;2023-07-31T13:17:35;28.60;99.90
7646;DHT22;3864;48.180;14.178;2023-07-31T13:20:04;29.00;99.90
7646;DHT22;3864;48.180;14.178;2023-07-31T13:22:31;29.30;99.90
7646;DHT22;3864;48.180;14.178;2023-07-31T13:24:58;29.50;99.90
7646;DHT22;3864;48.180;14.178;2023-07-31T13:27:25;29.50;99.90
7646;DHT22;3864;48.180;14.178;2023-07-31T13:29:52;29.80;99.90
7646;DHT22;3864;48.180;14.178;2023-07-31T13:32:20;29.80;99.90
7646;DHT22;3864;48.180;14.178;2023-07-31T13:34:48;30.00;99.90
7646;DHT22;3864;48.180;14.178;2023-07-31T13:37:16;29.20;97.90
7646;DHT22;3864;48.180;14.178;2023-07-31T13:39:43;28.40;99.00
7646;DHT22;3864;48.180;14.178;2023-07-31T13:42:10;28.90;99.90
7646;DHT22;3864;48.180;14.178;2023-07-31T13:44:37;28.30;98.40
7646;DHT22;3864;48.180;14.178;2023-07-31T13:47:05;28.50;99.90
7646;DHT22;3864;48.180;14.178;2023-07-31T13:49:32;28.80;99.90
7646;DHT22;3864;48.180;14.178;2023-07-31T13:52:01;29.00;98.00
7646;DHT22;3864;48.180;14.178;2023-07-31T13:54:28;29.10;99.70
7646;DHT22;3864;48.180;14.178;2023-07-31T13:56:55;29.40;99.50
7646;DHT22;3864;48.180;14.178;2023-07-31T13:59:22;29.20;99.90
7646;DHT22;3864;48.180;14.178;2023-07-31T14:01:50;28.90;97.90
7646;DHT22;3864;48.180;14.178;2023-07-31T14:04:17;29.30;99.90
7646;DHT22;3864;48.180;14.178;2023-07-31T14:06:44;29.70;99.60
7646;DHT22;3864;48.180;14.178;2023-07-31T14:09:15;30.10;99.90
7646;DHT22;3864;48.180;14.178;2023-07-31T14:11:43;29.30;99.00
7646;DHT22;3864;48.180;14.178;2023-07-31T14:14:10;29.00;99.90
7646;DHT22;3864;48.180;14.178;2023-07-31T14:16:38;28.60;97.60
7646;DHT22;3864;48.180;14.178;2023-07-31T14:19:05;29.10;99.90
7646;DHT22;3864;48.180;14.178;2023-07-31T14:21:33;29.10;99.10
7646;DHT22;3864;48.180;14.178;2023-07-31T14:24:00;29.20;98.50
7646;DHT22;3864;48.180;14.178;2023-07-31T14:26:28;28.10;96.60
7646;DHT22;3864;48.180;14.178;2023-07-31T14:28:55;28.40;98.30
7646;DHT22;3864;48.180;14.178;2023-07-31T14:31:23;29.10;97.70
7646;DHT22;3864;48.180;14.178;2023-07-31T14:33:50;29.40;99.90
7646;DHT22;3864;48.180;14.178;2023-07-31T14:36:17;29.70;99.90
7646;DHT22;3864;48.180;14.178;2023-07-31T14:38:44;29.60;99.40
7646;DHT22;3864;48.180;14.178;2023-07-31T14:41:11;29.70;99.90
7646;DHT22;3864;48.180;14.178;2023-07-31T14:43:39;29.20;96.60
7646;DHT22;3864;48.180;14.178;2023-07-31T14:46:06;29.20;97.20
7646;DHT22;3864;48.180;14.178;2023-07-31T14:48:33;29.00;96.80
7646;DHT22;3864;48.180;14.178;2023-07-31T14:51:00;29.10;99.90
7646;DHT22;3864;48.180;14.178;2023-07-31T14:53:28;29.40;97.30
7646;DHT22;3864;48.180;14.178;2023-07-31T14:55:55;29.30;97.40
7646;DHT22;3864;48.180;14.178;2023-07-31T14:58:22;29.10;96.20
7646;DHT22;3864;48.180;14.178;2023-07-31T15:00:51;29.40;98.60
7646;DHT22;3864;48.180;14.178;2023-07-31T15:03:18;29.80;97.60
7646;DHT22;3864;48.180;14.178;2023-07-31T15:05:45;30.00;97.20
7646;DHT22;3864;48.180;14.178;2023-07-31T15:08:12;29.70;96.40
7646;DHT22;3864;48.180;14.178;2023-07-31T15:10:39;29.30;97.70
7646;DHT22;3864;48.180;14.178;2023-07-31T15:13:06;29.80;98.10
7646;DHT22;3864;48.180;14.178;2023-07-31T15:15:33;30.20;98.60
7646;DHT22;3864;48.180;14.178;2023-07-31T15:18:01;30.70;98.50
7646;DHT22;3864;48.180;14.178;2023-07-31T15:20:29;30.70;96.40
7646;DHT22;3864;48.180;14.178;2023-07-31T15:22:56;30.70;97.60
7646;DHT22;3864;48.180;14.178;2023-07-31T15:25:23;30.20;96.60
7646;DHT22;3864;48.180;14.178;2023-07-31T15:27:50;30.60;98.40
7646;DHT22;3864;48.180;14.178;2023-07-31T15:30:17;30.80;98.50
7646;DHT22;3864;48.180;14.178;2023-07-31T15:32:44;30.30;97.90
7646;DHT22;3864;48.180;14.178;2023-07-31T15:35:15;30.50;99.20
7646;DHT22;3864;48.180;14.178;2023-07-31T15:37:43;30.40;99.90
7646;DHT22;3864;48.180;14.178;2023-07-31T15:40:10;30.20;99.90
7646;DHT22;3864;48.180;14.178;2023-07-31T15:42:37;30.10;99.40
7646;DHT22;3864;48.180;14.178;2023-07-31T15:45:07;29.50;99.90
7646;DHT22;3864;48.180;14.178;2023-07-31T15:47:34;29.10;99.90
7646;DHT22;3864;48.180;14.178;2023-07-31T15:50:01;28.70;99.90